sensor_id;sensor_type;location;lat;lon;timestamp;P1;durP1;ratioP1;P2;durP2;ratioP2
73264;SDS011;61493;51.008;14.088;2023-02-15T00:01:28;65.17;;;26.30;;
73264;SDS011;61493;51.008;14.088;2023-02-15T00:03:53;62.00;;;25.13;;
73264;SDS011;61493;51.008;14.088;2023-02-15T00:06:18;58.57;;;24.83;;
73264;SDS011;61493;51.008;14.088;2023-02-15T00:08:47;74.60;;;27.70;;
73264;SDS011;61493;51.008;14.088;2023-02-15T00:11:13;60.73;;;22.27;;
73264;SDS011;61493;51.008;14.088;2023-02-15T00:13:39;66.27;;;26.93;;
73264;SDS011;61493;51.008;14.088;2023-02-15T00:16:11;58.47;;;24.83;;
73264;SDS011;61493;51.008;14.088;2023-02-15T00:18:37;59.17;;;23.90;;
73264;SDS011;61493;51.008;14.088;2023-02-15T00:21:03;67.47;;;24.63;;
73264;SDS011;61493;51.008;14.088;2023-02-15T00:23:29;51.90;;;22.93;;
73264;SDS011;61493;51.008;14.088;2023-02-15T00:26:07;63.80;;;23.25;;
73264;SDS011;61493;51.008;14.088;2023-02-15T00:28:32;70.73;;;25.10;;
73264;SDS011;61493;51.008;14.088;2023-02-15T00:33:28;62.27;;;25.20;;
73264;SDS011;61493;51.008;14.088;2023-02-15T00:35:57;71.25;;;25.30;;
73264;SDS011;61493;51.008;14.088;2023-02-15T00:38:22;42.13;;;19.40;;
73264;SDS011;61493;51.008;14.088;2023-02-15T00:40:51;58.92;;;22.90;;
73264;SDS011;61493;51.008;14.088;2023-02-15T00:43:17;66.03;;;24.20;;
73264;SDS011;61493;51.008;14.088;2023-02-15T00:45:42;66.33;;;27.47;;
73264;SDS011;61493;51.008;14.088;2023-02-15T00:48:07;58.27;;;22.23;;
73264;SDS011;61493;51.008;14.088;2023-02-15T00:50:32;64.03;;;23.23;;
73264;SDS011;61493;51.008;14.088;2023-02-15T00:52:57;72.60;;;28.50;;
73264;SDS011;61493;51.008;14.088;2023-02-15T00:55:22;79.32;;;30.08;;
73264;SDS011;61493;51.008;14.088;2023-02-15T00:57:48;72.40;;;26.88;;
73264;SDS011;61493;51.008;14.088;2023-02-15T01:00:13;67.13;;;23.67;;
73264;SDS011;61493;51.008;14.088;2023-02-15T01:02:38;62.77;;;24.27;;
73264;SDS011;61493;51.008;14.088;2023-02-15T01:05:03;64.57;;;24.83;;
73264;SDS011;61493;51.008;14.088;2023-02-15T01:07:30;58.93;;;24.60;;
73264;SDS011;61493;51.008;14.088;2023-02-15T01:09:56;54.70;;;21.97;;
73264;SDS011;61493;51.008;14.088;2023-02-15T01:12:21;54.28;;;23.98;;
73264;SDS011;61493;51.008;14.088;2023-02-15T01:14:46;72.88;;;26.15;;
73264;SDS011;61493;51.008;14.088;2023-02-15T01:17:11;60.65;;;25.42;;
73264;SDS011;61493;51.008;14.088;2023-02-15T01:19:36;69.55;;;24.80;;
73264;SDS011;61493;51.008;14.088;2023-02-15T01:22:01;58.43;;;25.37;;
73264;SDS011;61493;51.008;14.088;2023-02-15T01:24:26;79.37;;;28.00;;
73264;SDS011;61493;51.008;14.088;2023-02-15T01:26:52;64.30;;;25.87;;
73264;SDS011;61493;51.008;14.088;2023-02-15T01:29:17;59.78;;;25.23;;
73264;SDS011;61493;51.008;14.088;2023-02-15T01:31:42;56.97;;;23.37;;
73264;SDS011;61493;51.008;14.088;2023-02-15T01:34:07;74.00;;;29.55;;
73264;SDS011;61493;51.008;14.088;2023-02-15T01:36:33;72.47;;;27.17;;
73264;SDS011;61493;51.008;14.088;2023-02-15T01:38:58;57.27;;;22.57;;
73264;SDS011;61493;51.008;14.088;2023-02-15T01:41:25;69.73;;;26.47;;
73264;SDS011;61493;51.008;14.088;2023-02-15T01:43:59;74.27;;;26.67;;
73264;SDS011;61493;51.008;14.088;2023-02-15T01:46:26;71.22;;;27.05;;
73264;SDS011;61493;51.008;14.088;2023-02-15T01:48:54;70.30;;;25.87;;
73264;SDS011;61493;51.008;14.088;2023-02-15T01:51:22;65.07;;;26.40;;
73264;SDS011;61493;51.008;14.088;2023-02-15T01:53:57;70.43;;;26.40;;
73264;SDS011;61493;51.008;14.088;2023-02-15T01:56:25;63.87;;;22.37;;
73264;SDS011;61493;51.008;14.088;2023-02-15T01:58:53;50.53;;;22.77;;
73264;SDS011;61493;51.008;14.088;2023-02-15T02:01:18;76.67;;;28.90;;
73264;SDS011;61493;51.008;14.088;2023-02-15T02:06:28;59.83;;;23.80;;
73264;SDS011;61493;51.008;14.088;2023-02-15T02:08:54;74.63;;;28.70;;
73264;SDS011;61493;51.008;14.088;2023-02-15T02:11:19;53.10;;;22.53;;
73264;SDS011;61493;51.008;14.088;2023-02-15T02:13:45;67.77;;;24.67;;
73264;SDS011;61493;51.008;14.088;2023-02-15T02:34:48;56.33;;;24.27;;
73264;SDS011;61493;51.008;14.088;2023-02-15T02:37:24;69.83;;;23.83;;
73264;SDS011;61493;51.008;14.088;2023-02-15T02:40:08;69.53;;;25.17;;
73264;SDS011;61493;51.008;14.088;2023-02-15T02:42:41;70.07;;;25.93;;
73264;SDS011;61493;51.008;14.088;2023-02-15T02:45:15;53.97;;;25.07;;
73264;SDS011;61493;51.008;14.088;2023-02-15T02:50:27;66.33;;;27.83;;
73264;SDS011;61493;51.008;14.088;2023-02-15T02:52:54;69.00;;;27.87;;
73264;SDS011;61493;51.008;14.088;2023-02-15T02:57:55;65.63;;;24.13;;
73264;SDS011;61493;51.008;14.088;2023-02-15T03:00:23;67.97;;;23.23;;
73264;SDS011;61493;51.008;14.088;2023-02-15T03:02:50;63.60;;;23.83;;
73264;SDS011;61493;51.008;14.088;2023-02-15T03:05:17;59.77;;;22.03;;
73264;SDS011;61493;51.008;14.088;2023-02-15T03:07:46;61.67;;;22.37;;
73264;SDS011;61493;51.008;14.088;2023-02-15T03:10:12;68.83;;;26.60;;
73264;SDS011;61493;51.008;14.088;2023-02-15T03:12:39;54.40;;;22.70;;
73264;SDS011;61493;51.008;14.088;2023-02-15T03:15:15;56.80;;;23.10;;
73264;SDS011;61493;51.008;14.088;2023-02-15T03:17:42;68.27;;;24.87;;
73264;SDS011;61493;51.008;14.088;2023-02-15T03:20:14;63.57;;;26.43;;
73264;SDS011;61493;51.008;14.088;2023-02-15T03:22:41;59.37;;;21.33;;
73264;SDS011;61493;51.008;14.088;2023-02-15T03:25:12;61.20;;;23.70;;
73264;SDS011;61493;51.008;14.088;2023-02-15T03:27:45;54.87;;;21.83;;
73264;SDS011;61493;51.008;14.088;2023-02-15T03:30:10;62.57;;;25.13;;
73264;SDS011;61493;51.008;14.088;2023-02-15T03:32:37;50.37;;;22.40;;
73264;SDS011;61493;51.008;14.088;2023-02-15T03:35:03;50.80;;;20.50;;
73264;SDS011;61493;51.008;14.088;2023-02-15T03:37:41;55.23;;;20.27;;
73264;SDS011;61493;51.008;14.088;2023-02-15T03:40:17;52.63;;;20.67;;
73264;SDS011;61493;51.008;14.088;2023-02-15T03:43:14;57.27;;;22.80;;
73264;SDS011;61493;51.008;14.088;2023-02-15T03:45:42;73.17;;;27.40;;
73264;SDS011;61493;51.008;14.088;2023-02-15T03:48:43;57.57;;;23.13;;
73264;SDS011;61493;51.008;14.088;2023-02-15T03:51:12;60.60;;;21.10;;
73264;SDS011;61493;51.008;14.088;2023-02-15T03:53:58;54.23;;;23.13;;
73264;SDS011;61493;51.008;14.088;2023-02-15T03:56:23;55.83;;;22.00;;
73264;SDS011;61493;51.008;14.088;2023-02-15T03:58:49;60.63;;;23.30;;
73264;SDS011;61493;51.008;14.088;2023-02-15T04:01:34;58.37;;;21.73;;
73264;SDS011;61493;51.008;14.088;2023-02-15T04:04:19;71.03;;;24.67;;
73264;SDS011;61493;51.008;14.088;2023-02-15T04:06:45;55.30;;;21.27;;
73264;SDS011;61493;51.008;14.088;2023-02-15T04:09:11;67.93;;;24.40;;
73264;SDS011;61493;51.008;14.088;2023-02-15T04:11:55;58.93;;;19.53;;
73264;SDS011;61493;51.008;14.088;2023-02-15T04:14:20;59.13;;;24.57;;
73264;SDS011;61493;51.008;14.088;2023-02-15T04:17:07;57.43;;;23.93;;
73264;SDS011;61493;51.008;14.088;2023-02-15T04:19:33;72.23;;;24.93;;
73264;SDS011;61493;51.008;14.088;2023-02-15T04:22:17;57.53;;;22.20;;
73264;SDS011;61493;51.008;14.088;2023-02-15T04:25:00;53.27;;;21.50;;
73264;SDS011;61493;51.008;14.088;2023-02-15T04:27:38;70.03;;;22.80;;
73264;SDS011;61493;51.008;14.088;2023-02-15T04:30:07;47.77;;;17.47;;
73264;SDS011;61493;51.008;14.088;2023-02-15T04:32:33;68.43;;;23.00;;
73264;SDS011;61493;51.008;14.088;2023-02-15T04:34:59;78.37;;;24.67;;
73264;SDS011;61493;51.008;14.088;2023-02-15T04:37:24;69.50;;;21.53;;
73264;SDS011;61493;51.008;14.088;2023-02-15T04:39:49;65.27;;;25.70;;
73264;SDS011;61493;51.008;14.088;2023-02-15T04:42:14;45.97;;;18.80;;
73264;SDS011;61493;51.008;14.088;2023-02-15T04:44:40;61.00;;;20.07;;
73264;SDS011;61493;51.008;14.088;2023-02-15T04:47:05;54.23;;;21.13;;
73264;SDS011;61493;51.008;14.088;2023-02-15T04:49:30;66.60;;;23.33;;
73264;SDS011;61493;51.008;14.088;2023-02-15T04:51:55;58.53;;;17.83;;
73264;SDS011;61493;51.008;14.088;2023-02-15T04:54:20;61.70;;;22.00;;
73264;SDS011;61493;51.008;14.088;2023-02-15T04:56:46;56.83;;;21.53;;
73264;SDS011;61493;51.008;14.088;2023-02-15T04:59:11;50.60;;;21.00;;
73264;SDS011;61493;51.008;14.088;2023-02-15T05:01:37;63.23;;;21.13;;
73264;SDS011;61493;51.008;14.088;2023-02-15T05:04:02;40.30;;;16.87;;
73264;SDS011;61493;51.008;14.088;2023-02-15T05:06:27;57.23;;;20.77;;
73264;SDS011;61493;51.008;14.088;2023-02-15T05:08:53;56.03;;;20.43;;
73264;SDS011;61493;51.008;14.088;2023-02-15T05:11:18;58.17;;;20.40;;
73264;SDS011;61493;51.008;14.088;2023-02-15T05:13:43;60.07;;;20.67;;
73264;SDS011;61493;51.008;14.088;2023-02-15T05:16:08;50.13;;;18.17;;
73264;SDS011;61493;51.008;14.088;2023-02-15T05:18:34;51.70;;;17.23;;
73264;SDS011;61493;51.008;14.088;2023-02-15T05:20:59;63.83;;;23.97;;
73264;SDS011;61493;51.008;14.088;2023-02-15T05:23:24;64.28;;;22.67;;
73264;SDS011;61493;51.008;14.088;2023-02-15T05:25:49;52.80;;;20.90;;
73264;SDS011;61493;51.008;14.088;2023-02-15T05:28:33;58.30;;;20.70;;
73264;SDS011;61493;51.008;14.088;2023-02-15T05:33:36;45.97;;;15.73;;
73264;SDS011;61493;51.008;14.088;2023-02-15T05:36:01;47.23;;;18.93;;
73264;SDS011;61493;51.008;14.088;2023-02-15T05:38:27;50.23;;;17.57;;
73264;SDS011;61493;51.008;14.088;2023-02-15T05:40:52;40.10;;;14.10;;
73264;SDS011;61493;51.008;14.088;2023-02-15T05:43:17;37.63;;;15.43;;
73264;SDS011;61493;51.008;14.088;2023-02-15T05:45:46;50.10;;;19.50;;
73264;SDS011;61493;51.008;14.088;2023-02-15T05:48:11;49.77;;;16.63;;
73264;SDS011;61493;51.008;14.088;2023-02-15T05:50:37;43.87;;;14.30;;
73264;SDS011;61493;51.008;14.088;2023-02-15T05:53:02;44.42;;;16.20;;
73264;SDS011;61493;51.008;14.088;2023-02-15T05:55:27;41.40;;;16.23;;
73264;SDS011;61493;51.008;14.088;2023-02-15T05:57:52;35.67;;;14.63;;
73264;SDS011;61493;51.008;14.088;2023-02-15T06:00:17;49.63;;;17.85;;
73264;SDS011;61493;51.008;14.088;2023-02-15T06:02:43;43.13;;;15.60;;
73264;SDS011;61493;51.008;14.088;2023-02-15T06:05:08;50.17;;;17.33;;
73264;SDS011;61493;51.008;14.088;2023-02-15T06:07:33;64.73;;;17.67;;
73264;SDS011;61493;51.008;14.088;2023-02-15T06:09:58;49.67;;;18.50;;
73264;SDS011;61493;51.008;14.088;2023-02-15T06:12:24;46.77;;;17.00;;
73264;SDS011;61493;51.008;14.088;2023-02-15T06:14:49;28.63;;;13.23;;
73264;SDS011;61493;51.008;14.088;2023-02-15T06:17:14;45.97;;;14.83;;
73264;SDS011;61493;51.008;14.088;2023-02-15T06:19:41;44.33;;;15.90;;
73264;SDS011;61493;51.008;14.088;2023-02-15T06:22:09;39.23;;;15.40;;
73264;SDS011;61493;51.008;14.088;2023-02-15T06:24:34;46.33;;;17.73;;
73264;SDS011;61493;51.008;14.088;2023-02-15T06:27:00;54.97;;;19.20;;
73264;SDS011;61493;51.008;14.088;2023-02-15T06:29:25;40.00;;;15.47;;
73264;SDS011;61493;51.008;14.088;2023-02-15T06:31:50;46.37;;;17.00;;
73264;SDS011;61493;51.008;14.088;2023-02-15T06:34:16;50.83;;;18.00;;
73264;SDS011;61493;51.008;14.088;2023-02-15T06:36:42;55.17;;;18.37;;
73264;SDS011;61493;51.008;14.088;2023-02-15T06:39:07;41.83;;;17.67;;
73264;SDS011;61493;51.008;14.088;2023-02-15T06:41:34;42.37;;;16.40;;
73264;SDS011;61493;51.008;14.088;2023-02-15T06:44:00;40.80;;;14.93;;
73264;SDS011;61493;51.008;14.088;2023-02-15T06:46:25;42.10;;;18.40;;
73264;SDS011;61493;51.008;14.088;2023-02-15T06:48:50;38.27;;;14.57;;
73264;SDS011;61493;51.008;14.088;2023-02-15T06:51:15;38.33;;;15.03;;
73264;SDS011;61493;51.008;14.088;2023-02-15T06:53:40;47.03;;;17.67;;
73264;SDS011;61493;51.008;14.088;2023-02-15T06:56:07;41.43;;;14.93;;
73264;SDS011;61493;51.008;14.088;2023-02-15T06:58:40;41.20;;;16.07;;
73264;SDS011;61493;51.008;14.088;2023-02-15T07:01:06;45.05;;;17.92;;
73264;SDS011;61493;51.008;14.088;2023-02-15T07:03:32;52.97;;;18.63;;
73264;SDS011;61493;51.008;14.088;2023-02-15T07:05:57;47.37;;;18.23;;
73264;SDS011;61493;51.008;14.088;2023-02-15T07:08:23;42.53;;;13.83;;
73264;SDS011;61493;51.008;14.088;2023-02-15T07:10:49;49.67;;;17.23;;
73264;SDS011;61493;51.008;14.088;2023-02-15T07:13:14;30.77;;;14.10;;
73264;SDS011;61493;51.008;14.088;2023-02-15T07:15:39;43.05;;;17.50;;
73264;SDS011;61493;51.008;14.088;2023-02-15T07:18:05;34.22;;;14.15;;
73264;SDS011;61493;51.008;14.088;2023-02-15T07:20:30;29.27;;;13.63;;
73264;SDS011;61493;51.008;14.088;2023-02-15T07:22:55;39.60;;;15.00;;
73264;SDS011;61493;51.008;14.088;2023-02-15T07:25:20;32.83;;;13.73;;
73264;SDS011;61493;51.008;14.088;2023-02-15T07:27:45;39.20;;;15.80;;
73264;SDS011;61493;51.008;14.088;2023-02-15T07:30:12;40.23;;;15.57;;
73264;SDS011;61493;51.008;14.088;2023-02-15T07:32:40;44.37;;;20.20;;
73264;SDS011;61493;51.008;14.088;2023-02-15T07:35:28;31.60;;;13.00;;
73264;SDS011;61493;51.008;14.088;2023-02-15T07:37:54;45.23;;;16.13;;
73264;SDS011;61493;51.008;14.088;2023-02-15T07:40:21;33.87;;;14.23;;
73264;SDS011;61493;51.008;14.088;2023-02-15T07:42:48;48.40;;;18.63;;
73264;SDS011;61493;51.008;14.088;2023-02-15T07:45:14;48.23;;;21.30;;
73264;SDS011;61493;51.008;14.088;2023-02-15T07:47:39;40.17;;;15.80;;
73264;SDS011;61493;51.008;14.088;2023-02-15T07:50:07;40.00;;;15.83;;
73264;SDS011;61493;51.008;14.088;2023-02-15T07:52:39;34.90;;;14.67;;
73264;SDS011;61493;51.008;14.088;2023-02-15T07:55:05;43.70;;;16.50;;
73264;SDS011;61493;51.008;14.088;2023-02-15T07:57:30;35.43;;;16.03;;
73264;SDS011;61493;51.008;14.088;2023-02-15T07:59:55;36.60;;;15.23;;
73264;SDS011;61493;51.008;14.088;2023-02-15T08:02:20;39.88;;;14.32;;
73264;SDS011;61493;51.008;14.088;2023-02-15T08:04:45;35.33;;;14.30;;
73264;SDS011;61493;51.008;14.088;2023-02-15T08:07:11;33.65;;;12.93;;
73264;SDS011;61493;51.008;14.088;2023-02-15T08:09:36;43.40;;;16.30;;
73264;SDS011;61493;51.008;14.088;2023-02-15T08:12:01;39.73;;;14.47;;
73264;SDS011;61493;51.008;14.088;2023-02-15T08:14:29;38.47;;;14.97;;
73264;SDS011;61493;51.008;14.088;2023-02-15T08:16:55;32.37;;;12.90;;
73264;SDS011;61493;51.008;14.088;2023-02-15T08:19:30;36.37;;;15.57;;
73264;SDS011;61493;51.008;14.088;2023-02-15T08:24:22;34.27;;;12.63;;
73264;SDS011;61493;51.008;14.088;2023-02-15T08:26:48;41.57;;;19.53;;
73264;SDS011;61493;51.008;14.088;2023-02-15T08:29:14;43.43;;;17.57;;
73264;SDS011;61493;51.008;14.088;2023-02-15T08:31:39;39.63;;;17.03;;
73264;SDS011;61493;51.008;14.088;2023-02-15T08:34:06;42.43;;;15.37;;
73264;SDS011;61493;51.008;14.088;2023-02-15T08:36:32;36.40;;;14.27;;
73264;SDS011;61493;51.008;14.088;2023-02-15T08:38:57;32.20;;;13.50;;
73264;SDS011;61493;51.008;14.088;2023-02-15T08:41:24;45.80;;;15.40;;
73264;SDS011;61493;51.008;14.088;2023-02-15T08:43:52;42.83;;;17.60;;
73264;SDS011;61493;51.008;14.088;2023-02-15T08:46:18;40.50;;;15.63;;
73264;SDS011;61493;51.008;14.088;2023-02-15T08:48:44;43.53;;;15.97;;
73264;SDS011;61493;51.008;14.088;2023-02-15T08:51:23;35.33;;;15.70;;
73264;SDS011;61493;51.008;14.088;2023-02-15T08:53:50;35.77;;;15.43;;
73264;SDS011;61493;51.008;14.088;2023-02-15T08:56:16;41.53;;;18.53;;
73264;SDS011;61493;51.008;14.088;2023-02-15T08:58:41;34.17;;;15.70;;
73264;SDS011;61493;51.008;14.088;2023-02-15T09:03:34;38.57;;;17.17;;
73264;SDS011;61493;51.008;14.088;2023-02-15T09:06:03;36.70;;;16.00;;
73264;SDS011;61493;51.008;14.088;2023-02-15T09:08:28;31.30;;;15.47;;
73264;SDS011;61493;51.008;14.088;2023-02-15T09:10:54;41.50;;;16.80;;
73264;SDS011;61493;51.008;14.088;2023-02-15T09:13:19;39.53;;;17.60;;
73264;SDS011;61493;51.008;14.088;2023-02-15T09:15:45;44.37;;;18.63;;
73264;SDS011;61493;51.008;14.088;2023-02-15T09:18:10;41.73;;;16.53;;
73264;SDS011;61493;51.008;14.088;2023-02-15T09:20:37;45.23;;;17.77;;
73264;SDS011;61493;51.008;14.088;2023-02-15T09:23:05;36.32;;;16.06;;
73264;SDS011;61493;51.008;14.088;2023-02-15T09:25:30;44.47;;;17.20;;
73264;SDS011;61493;51.008;14.088;2023-02-15T09:27:55;33.60;;;16.32;;
73264;SDS011;61493;51.008;14.088;2023-02-15T09:30:20;34.57;;;17.30;;
73264;SDS011;61493;51.008;14.088;2023-02-15T09:32:46;38.63;;;17.33;;
73264;SDS011;61493;51.008;14.088;2023-02-15T09:35:12;45.83;;;19.07;;
73264;SDS011;61493;51.008;14.088;2023-02-15T09:37:39;38.00;;;16.00;;
73264;SDS011;61493;51.008;14.088;2023-02-15T09:40:04;32.67;;;14.47;;
73264;SDS011;61493;51.008;14.088;2023-02-15T09:42:52;36.57;;;16.53;;
73264;SDS011;61493;51.008;14.088;2023-02-15T09:45:30;34.63;;;17.47;;
73264;SDS011;61493;51.008;14.088;2023-02-15T09:53:29;45.00;;;18.27;;
73264;SDS011;61493;51.008;14.088;2023-02-15T09:56:00;39.97;;;19.02;;
73264;SDS011;61493;51.008;14.088;2023-02-15T10:01:10;38.33;;;16.58;;
73264;SDS011;61493;51.008;14.088;2023-02-15T10:11:17;36.92;;;17.08;;
73264;SDS011;61493;51.008;14.088;2023-02-15T10:25:05;37.17;;;16.30;;
73264;SDS011;61493;51.008;14.088;2023-02-15T10:27:07;41.88;;;17.90;;
73264;SDS011;61493;51.008;14.088;2023-02-15T10:29:40;33.70;;;16.05;;
73264;SDS011;61493;51.008;14.088;2023-02-15T10:34:43;36.33;;;16.15;;
73264;SDS011;61493;51.008;14.088;2023-02-15T10:42:55;29.63;;;12.93;;
73264;SDS011;61493;51.008;14.088;2023-02-15T10:45:29;40.10;;;17.05;;
73264;SDS011;61493;51.008;14.088;2023-02-15T10:53:08;32.33;;;15.18;;
73264;SDS011;61493;51.008;14.088;2023-02-15T11:03:48;32.67;;;14.65;;
73264;SDS011;61493;51.008;14.088;2023-02-15T11:06:16;28.00;;;13.07;;
73264;SDS011;61493;51.008;14.088;2023-02-15T11:08:43;31.40;;;15.43;;
73264;SDS011;61493;51.008;14.088;2023-02-15T11:11:10;39.10;;;18.33;;
73264;SDS011;61493;51.008;14.088;2023-02-15T11:13:42;31.13;;;15.82;;
73264;SDS011;61493;51.008;14.088;2023-02-15T11:16:14;33.03;;;15.50;;
73264;SDS011;61493;51.008;14.088;2023-02-15T11:23:46;32.25;;;14.50;;
73264;SDS011;61493;51.008;14.088;2023-02-15T11:26:27;32.17;;;13.73;;
73264;SDS011;61493;51.008;14.088;2023-02-15T11:28:59;37.08;;;14.88;;
73264;SDS011;61493;51.008;14.088;2023-02-15T11:31:29;38.03;;;17.02;;
73264;SDS011;61493;51.008;14.088;2023-02-15T11:34:04;36.05;;;14.25;;
73264;SDS011;61493;51.008;14.088;2023-02-15T11:36:34;29.95;;;13.18;;
73264;SDS011;61493;51.008;14.088;2023-02-15T11:39:02;30.30;;;14.10;;
73264;SDS011;61493;51.008;14.088;2023-02-15T11:41:29;29.23;;;15.43;;
73264;SDS011;61493;51.008;14.088;2023-02-15T11:43:58;35.13;;;16.40;;
73264;SDS011;61493;51.008;14.088;2023-02-15T11:46:25;26.95;;;14.25;;
73264;SDS011;61493;51.008;14.088;2023-02-15T11:48:51;33.92;;;14.88;;
73264;SDS011;61493;51.008;14.088;2023-02-15T11:51:20;31.45;;;14.15;;
73264;SDS011;61493;51.008;14.088;2023-02-15T11:53:46;34.15;;;16.88;;
73264;SDS011;61493;51.008;14.088;2023-02-15T11:56:13;40.70;;;16.38;;
73264;SDS011;61493;51.008;14.088;2023-02-15T11:58:54;32.63;;;15.45;;
73264;SDS011;61493;51.008;14.088;2023-02-15T12:03:52;39.75;;;17.95;;
73264;SDS011;61493;51.008;14.088;2023-02-15T12:06:27;33.53;;;15.10;;
73264;SDS011;61493;51.008;14.088;2023-02-15T12:09:00;35.50;;;15.40;;
73264;SDS011;61493;51.008;14.088;2023-02-15T12:11:35;32.22;;;14.27;;
73264;SDS011;61493;51.008;14.088;2023-02-15T12:14:01;34.58;;;18.75;;
73264;SDS011;61493;51.008;14.088;2023-02-15T12:16:27;28.38;;;12.32;;
73264;SDS011;61493;51.008;14.088;2023-02-15T12:18:57;32.05;;;14.57;;
73264;SDS011;61493;51.008;14.088;2023-02-15T12:21:32;31.35;;;14.13;;
73264;SDS011;61493;51.008;14.088;2023-02-15T12:24:18;33.25;;;16.25;;
73264;SDS011;61493;51.008;14.088;2023-02-15T12:26:43;33.55;;;15.70;;
73264;SDS011;61493;51.008;14.088;2023-02-15T12:29:12;34.65;;;15.32;;
73264;SDS011;61493;51.008;14.088;2023-02-15T12:31:40;28.08;;;15.98;;
73264;SDS011;61493;51.008;14.088;2023-02-15T12:34:11;35.60;;;17.83;;
73264;SDS011;61493;51.008;14.088;2023-02-15T12:36:44;27.30;;;14.55;;
73264;SDS011;61493;51.008;14.088;2023-02-15T12:41:49;34.35;;;15.75;;
73264;SDS011;61493;51.008;14.088;2023-02-15T12:44:25;35.75;;;17.65;;
73264;SDS011;61493;51.008;14.088;2023-02-15T12:49:23;33.28;;;16.65;;
73264;SDS011;61493;51.008;14.088;2023-02-15T12:51:49;31.52;;;16.02;;
73264;SDS011;61493;51.008;14.088;2023-02-15T12:54:24;33.83;;;15.55;;
73264;SDS011;61493;51.008;14.088;2023-02-15T12:56:51;33.08;;;14.55;;
73264;SDS011;61493;51.008;14.088;2023-02-15T12:59:16;35.55;;;15.55;;
73264;SDS011;61493;51.008;14.088;2023-02-15T13:01:45;37.53;;;16.38;;
73264;SDS011;61493;51.008;14.088;2023-02-15T13:04:19;37.10;;;17.38;;
73264;SDS011;61493;51.008;14.088;2023-02-15T13:06:49;34.47;;;16.90;;
73264;SDS011;61493;51.008;14.088;2023-02-15T13:09:15;37.55;;;16.20;;
73264;SDS011;61493;51.008;14.088;2023-02-15T13:11:42;45.55;;;18.60;;
73264;SDS011;61493;51.008;14.088;2023-02-15T13:14:21;36.20;;;16.60;;
73264;SDS011;61493;51.008;14.088;2023-02-15T13:16:50;38.15;;;18.23;;
73264;SDS011;61493;51.008;14.088;2023-02-15T13:19:18;45.28;;;17.52;;
73264;SDS011;61493;51.008;14.088;2023-02-15T13:21:44;43.08;;;17.40;;
73264;SDS011;61493;51.008;14.088;2023-02-15T13:24:20;37.95;;;14.93;;
73264;SDS011;61493;51.008;14.088;2023-02-15T13:26:47;35.90;;;16.60;;
73264;SDS011;61493;51.008;14.088;2023-02-15T13:31:47;37.13;;;16.05;;
73264;SDS011;61493;51.008;14.088;2023-02-15T13:34:23;31.13;;;16.17;;
73264;SDS011;61493;51.008;14.088;2023-02-15T13:52:35;38.80;;;18.20;;
73264;SDS011;61493;51.008;14.088;2023-02-15T13:55:23;41.60;;;16.67;;
73264;SDS011;61493;51.008;14.088;2023-02-15T14:01:04;31.90;;;15.50;;
73264;SDS011;61493;51.008;14.088;2023-02-15T14:11:19;41.13;;;17.47;;
73264;SDS011;61493;51.008;14.088;2023-02-15T14:13:58;43.30;;;18.05;;
73264;SDS011;61493;51.008;14.088;2023-02-15T14:16:27;39.67;;;16.97;;
73264;SDS011;61493;51.008;14.088;2023-02-15T14:27:38;41.23;;;17.80;;
73264;SDS011;61493;51.008;14.088;2023-02-15T14:29:49;45.47;;;19.60;;
73264;SDS011;61493;51.008;14.088;2023-02-15T14:32:59;41.77;;;16.20;;
73264;SDS011;61493;51.008;14.088;2023-02-15T14:35:05;44.43;;;18.23;;
73264;SDS011;61493;51.008;14.088;2023-02-15T14:40:07;38.60;;;17.03;;
73264;SDS011;61493;51.008;14.088;2023-02-15T14:42:57;33.43;;;14.73;;
73264;SDS011;61493;51.008;14.088;2023-02-15T14:45:28;47.07;;;19.13;;
73264;SDS011;61493;51.008;14.088;2023-02-15T14:48:01;41.83;;;20.10;;
73264;SDS011;61493;51.008;14.088;2023-02-15T14:55:42;42.27;;;17.67;;
73264;SDS011;61493;51.008;14.088;2023-02-15T14:58:11;46.80;;;18.90;;
73264;SDS011;61493;51.008;14.088;2023-02-15T15:00:38;46.83;;;19.47;;
73264;SDS011;61493;51.008;14.088;2023-02-15T15:03:10;49.63;;;18.90;;
73264;SDS011;61493;51.008;14.088;2023-02-15T15:05:36;45.73;;;17.70;;
73264;SDS011;61493;51.008;14.088;2023-02-15T15:08:19;36.67;;;15.50;;
73264;SDS011;61493;51.008;14.088;2023-02-15T15:10:46;38.43;;;18.93;;
73264;SDS011;61493;51.008;14.088;2023-02-15T15:29:40;59.00;;;22.47;;
73264;SDS011;61493;51.008;14.088;2023-02-15T15:32:06;49.33;;;19.77;;
73264;SDS011;61493;51.008;14.088;2023-02-15T15:34:43;56.73;;;22.50;;
73264;SDS011;61493;51.008;14.088;2023-02-15T15:40:01;44.63;;;20.30;;
73264;SDS011;61493;51.008;14.088;2023-02-15T15:50:21;50.43;;;19.47;;
73264;SDS011;61493;51.008;14.088;2023-02-15T15:52:51;60.60;;;22.13;;
73264;SDS011;61493;51.008;14.088;2023-02-15T15:55:17;50.30;;;21.20;;
73264;SDS011;61493;51.008;14.088;2023-02-15T15:57:44;36.67;;;15.03;;
73264;SDS011;61493;51.008;14.088;2023-02-15T16:00:29;51.27;;;17.67;;
73264;SDS011;61493;51.008;14.088;2023-02-15T16:02:56;46.97;;;19.67;;
73264;SDS011;61493;51.008;14.088;2023-02-15T16:05:21;56.27;;;22.50;;
73264;SDS011;61493;51.008;14.088;2023-02-15T16:07:47;52.77;;;21.53;;
73264;SDS011;61493;51.008;14.088;2023-02-15T16:10:25;56.70;;;20.87;;
73264;SDS011;61493;51.008;14.088;2023-02-15T16:12:50;58.47;;;24.23;;
73264;SDS011;61493;51.008;14.088;2023-02-15T16:15:23;59.73;;;22.30;;
73264;SDS011;61493;51.008;14.088;2023-02-15T16:17:50;56.65;;;21.50;;
73264;SDS011;61493;51.008;14.088;2023-02-15T16:22:45;45.37;;;20.13;;
73264;SDS011;61493;51.008;14.088;2023-02-15T16:27:43;63.57;;;21.40;;
73264;SDS011;61493;51.008;14.088;2023-02-15T16:30:16;72.10;;;27.37;;
73264;SDS011;61493;51.008;14.088;2023-02-15T16:32:41;40.58;;;19.45;;
73264;SDS011;61493;51.008;14.088;2023-02-15T16:35:12;47.23;;;20.27;;
73264;SDS011;61493;51.008;14.088;2023-02-15T16:37:41;55.97;;;23.63;;
73264;SDS011;61493;51.008;14.088;2023-02-15T16:40:28;53.00;;;18.93;;
73264;SDS011;61493;51.008;14.088;2023-02-15T16:42:55;50.10;;;21.23;;
73264;SDS011;61493;51.008;14.088;2023-02-15T16:45:25;55.63;;;20.40;;
73264;SDS011;61493;51.008;14.088;2023-02-15T16:47:55;59.53;;;26.17;;
73264;SDS011;61493;51.008;14.088;2023-02-15T16:50:34;69.03;;;24.80;;
73264;SDS011;61493;51.008;14.088;2023-02-15T16:53:01;49.50;;;21.40;;
73264;SDS011;61493;51.008;14.088;2023-02-15T16:55:28;51.77;;;22.67;;
73264;SDS011;61493;51.008;14.088;2023-02-15T16:58:02;68.07;;;24.07;;
73264;SDS011;61493;51.008;14.088;2023-02-15T17:00:31;55.77;;;23.03;;
73264;SDS011;61493;51.008;14.088;2023-02-15T17:05:23;47.08;;;21.42;;
73264;SDS011;61493;51.008;14.088;2023-02-15T17:08:05;52.90;;;21.07;;
73264;SDS011;61493;51.008;14.088;2023-02-15T17:10:32;54.30;;;22.42;;
73264;SDS011;61493;51.008;14.088;2023-02-15T17:13:17;67.47;;;23.30;;
73264;SDS011;61493;51.008;14.088;2023-02-15T17:15:43;64.77;;;24.27;;